Airfield :
LOGIN :

Register | Disclaimer

   EN    FR    IT 

 










Legend :    VFR   Marginal VFR   IFR   Intensive IFR   Very Intensive IFR
Visi :
Ceiling :
>= 8 km
>= 3000ft
5 to 8 km
1000 to 3000 ft
1500m to 5 km
500 to 1000 ft
800 to 1500m
200 to 500 ft
< 800m
< 200 ft
Symbols :   Thunderstorms  Fog  Heavy snow  Heavy precipitations  Wind > 20 kt
SIGMETs :     Misc.  Thunderstorms  Icing  Turbulence  Mountain Waves  Volcanic Ashes






- Airport Elevation : 1345 ft
- IATA code : FRZ


ETHF - Fritzlar

CURRENT METAR :
  • 290720Z 31001KT 2500 VCFG BKN005 OVC007 06/05 Q1016 YLO GRN TEMPO AMB

EXPIRED METARs :
  • 290636Z 30001KT 2000 BR BKN005 BKN008 06/05 Q1015 YLO GRN TEMPO AMB
  • 290535Z 29001KT 1400 DZ BR BKN008 BKN012 05/05 Q1015 AMB GRN TEMPO AMB
  • 290520Z 29001KT 2800 -DZ BR FEW005 OVC008 05/05 Q1015 YLO GRN TEMPO AMB

TAF TAF ETHF
Valid from the 29 at 06:00 until the 29 at 15:00 UTC


290520Z 2906/2915 VRB03KT 4000 -DZ SCT003 BKN007
TEMPO 2906/2912 VRB01KT 1000 DZ BKN003



MET'MAP, your aeronautical weather chart ! - Copyright ORBIFLY December 2007 - Disclaimer

ORBIFLY MET'MAP TEAM :

Programming & Development : Alexandra Zaïnal
Original concept : Baudouin d'Aumeries
Technical & hardware support : Manuel Goepfert
Assistance : Marc-Olivier Méhu




SOURCES & CREDITS :

   NOAA